• Join FlightAware (Why Join?)
  • Login
  • US Flag 
03:31PM EST


 

Airport Tracker/Info


-or-


 

Live Flight TrackerFlight Track Log ✈ EJA929 ✈ 11-Dec-2013 ✈ KFLL - KRAC

Flight Track Log - Related Links

Times and Time Zones

All times are in EST time to prevent confusion due to time zone crossing. See the EJA929 flight status page for this flight to view local times or setup timezone preferences in your user account.

Time Position Orientation Groundspeed Altitude Reporting Facility
EST Latitude Longitude Course Direction KTS MPH feet Rate Location/Type
05:31PM 26.0769 -80.1392 89° East 169 194 900  Level Miami Center
05:31PM 26.0778 -80.0997 89° East 210 242 2,800 2,520 Climbing Miami Center
05:33PM 26.1167 -80.0475 50° Northeast 270 311 5,300 2,520 Climbing Miami Center
05:34PM 26.1547 -80.1181 301° West 284 327 8,300 2,700 Climbing Miami Center
05:34PM 26.1767 -80.1650 298° West 285 328 9,400 2,640 Climbing Miami Center
05:35PM 26.1861 -80.2044 285° West 294 338 11,000 2,400 Climbing Miami Center
05:35PM 26.1997 -80.2489 289° West 298 343 11,800 1,140 Climbing Miami Center
05:36PM 26.2289 -80.3400 290° West 333 383 12,700 1,320 Climbing Miami Center
05:37PM 26.2578 -80.4497 286° West 361 415 14,500 1,500 Climbing Miami Center
05:38PM 26.2925 -80.5575 290° West 373 429 15,800 1,260 Climbing Miami Center
05:39PM 26.3467 -80.6425 305° West 373 429 17,100 1,200 Climbing Miami Center
05:40PM 26.4236 -80.7400 311° West 380 437 18,300 1,080 Climbing Miami Center
05:41PM 26.5139 -80.7942 332° Northwest 388 447 19,300 1,140 Climbing Miami Center
05:42PM 26.6186 -80.8603 331° Northwest 399 459 20,600 1,200 Climbing Miami Center
05:43PM 26.7172 -80.9264 329° Northwest 404 465 21,800 960 Climbing Miami Center
05:44PM 26.8053 -80.9878 328° Northwest 412 474 22,600 900 Climbing Miami Center
05:45PM 26.9078 -81.0542 330° Northwest 418 481 23,700 1,140 Climbing Miami Center
05:46PM 27.0100 -81.1208 330° Northwest 423 487 24,900 1,080 Climbing Miami Center
05:47PM 27.1144 -81.1922 329° Northwest 428 493 25,900 1,020 Climbing Miami Center
05:48PM 27.2208 -81.2617 330° Northwest 428 493 27,000 1,200 Climbing Miami Center
05:49PM 27.3292 -81.3383 328° Northwest 447 514 28,400 1,200 Climbing Miami Center
05:50PM 27.4356 -81.4056 331° Northwest 447 514 29,400 1,020 Climbing Miami Center
05:51PM 27.5439 -81.4800 329° Northwest 442 509 30,500 1,380 Climbing Miami Center
05:52PM 27.6644 -81.5600 330° Northwest 447 514 32,200 1,800 Climbing Miami Center
05:53PM 27.7725 -81.6347 329° Northwest 452 520 34,100 1,500 Climbing Miami Center
05:54PM 27.8786 -81.7072 329° Northwest 447 514 35,200 1,140 Climbing Miami Center
05:56PM 28.0642 -81.8294 330° Northwest 458 527 37,200 1,140 Climbing Jacksonville Center
05:57PM 28.1669 -81.8967 330° Northwest 464 534 38,400 1,200 Climbing Jacksonville Center
05:58PM 28.2864 -81.9569 336° Northwest 464 534 39,600 780 Climbing Jacksonville Center
05:59PM 28.4078 -82.0122 338° Northwest 464 534 40,000 180 Climbing Jacksonville Center
06:00PM 28.5356 -82.0678 339° North 476 548 40,000  Level Jacksonville Center
06:01PM 28.6653 -82.1236 339° North 482 555 40,000  Level Jacksonville Center
06:02PM 28.7950 -82.1794 339° North 487 560 40,000  Level Jacksonville Center
06:03PM 28.9247 -82.2378 339° North 493 567 40,000  Level Jacksonville Center
06:04PM 29.0628 -82.3011 338° Northwest 485 558 40,000  Level Jacksonville Center
06:05PM 29.1903 -82.3575 339° North 485 558 40,000  Level Jacksonville Center
06:06PM 29.3219 -82.4161 339° North 496 571 40,000  Level Jacksonville Center
06:07PM 29.4517 -82.4706 340° North 496 571 40,000  Level Jacksonville Center
06:08PM 29.5811 -82.5294 338° Northwest 496 571 40,000  Level Jacksonville Center
06:09PM 29.7108 -82.5889 338° Northwest 496 571 40,000  Level Jacksonville Center
06:10PM 29.8278 -82.6461 337° Northwest 499 574 40,000  Level Jacksonville Center
06:11PM 29.9553 -82.7033 339° North 499 574 40,000  Level Jacksonville Center
06:12PM 30.0972 -82.7631 340° North 494 568 40,000  Level Jacksonville Center
06:13PM 30.2247 -82.8206 339° North 494 568 40,000  Level Jacksonville Center
06:14PM 30.3542 -82.8806 338° Northwest 494 568 40,000  Level Jacksonville Center
06:15PM 30.4836 -82.9408 338° Northwest 494 568 40,000  Level Jacksonville Center
06:16PM 30.6111 -82.9964 339° North 489 563 40,000  Level Jacksonville Center
06:17PM 30.7383 -83.0544 339° North 489 563 40,000  Level Jacksonville Center
06:18PM 30.8489 -83.1103 337° Northwest 483 556 40,100  Climbing Jacksonville Center
06:19PM 30.9761 -83.1689 338° Northwest 483 556 40,100  Level Jacksonville Center
06:20PM 31.1033 -83.2275 338° Northwest 483 556 40,100  Level Jacksonville Center
06:22PM 31.4464 -83.3889 338° Northwest 491 565 40,100  Level Atlanta Center
06:23PM 31.5761 -83.4489 338° Northwest 509 586 40,100  Level Atlanta Center
06:24PM 31.6911 -83.5019 339° North 516 594 40,100  Level Atlanta Center
06:25PM 31.8208 -83.5597 339° North 511 588 40,100  Level Atlanta Center
06:26PM 31.9483 -83.6228 337° Northwest 511 588 40,100  Level Atlanta Center
06:27PM 32.0758 -83.6833 338° Northwest 504 580 40,100  Level Atlanta Center
06:28PM 32.2014 -83.7442 338° Northwest 499 574 40,100  Level Atlanta Center
06:29PM 32.3308 -83.8053 338° Northwest 499 574 40,100  Level Atlanta Center
06:30PM 32.4561 -83.8667 338° Northwest 499 574 40,100  Level Atlanta Center
06:31PM 32.5856 -83.9278 338° Northwest 499 574 40,100  Level Atlanta Center
06:32PM 32.7108 -83.9919 337° Northwest 499 574 40,100  Level Atlanta Center
06:33PM 32.8403 -84.0511 339° North 499 574 40,100  Level Atlanta Center
06:34PM 32.9636 -84.1131 337° Northwest 494 568 40,100  Level Atlanta Center
06:35PM 33.1053 -84.1825 338° Northwest 494 568 40,100  Level Atlanta Center
06:36PM 33.2283 -84.2425 338° Northwest 489 563 40,100  Level Atlanta Center
06:37PM 33.3389 -84.2950 338° Northwest 484 557 40,100  Level Atlanta Center
06:38PM 33.4661 -84.3575 338° Northwest 484 557 40,100  Level Atlanta Center
06:39PM 33.6036 -84.4253 338° Northwest 484 557 40,100  Level Atlanta Center
06:40PM 33.7392 -84.4661 346° North 484 557 40,100  Level Atlanta Center
06:41PM 33.8769 -84.4967 350° North 489 563 40,100  Level Atlanta Center
06:42PM 34.0042 -84.5300 348° North 501 577 40,100  Level Atlanta Center
06:43PM 34.1625 -84.5661 349° North 513 590 40,100 180 Level Atlanta Center
06:44PM 34.3003 -84.5969 350° North 513 590 40,500 360 Climbing Atlanta Center
06:45PM 34.4253 -84.6281 348° North 513 590 40,900 300 Climbing Atlanta Center
06:46PM 34.5628 -84.6619 349° North 506 582 41,100 60 Climbing Atlanta Center
06:47PM 34.6983 -84.6981 348° North 498 573 41,100 -60 Level Atlanta Center
06:48PM 34.8358 -84.7322 348° North 498 573 41,000 -60 Descending Atlanta Center
06:49PM 34.9714 -84.7664 348° North 498 573 41,000  Level Atlanta Center
06:50PM 35.1192 -84.8031 349° North 493 567 41,100  Climbing Atlanta Center
06:51PM 35.2567 -84.8375 348° North 493 567 41,100  Level Atlanta Center
06:52PM 35.3942 -84.8719 348° North 493 567 41,100  Level Atlanta Center
06:53PM 35.5294 -84.9064 348° North 493 567 41,100  Level Atlanta Center
06:54PM 35.6628 -84.9411 348° North 493 567 41,100  Level Atlanta Center
06:55PM 35.7753 -84.9678 349° North 493 567 41,100  Level Atlanta Center
06:56PM 35.8933 -84.9953 349° North 501 577 41,100 -420 Level Indianapolis Center
06:57PM 36.0194 -85.0289 348° North 487 560 40,400 -540 Descending Indianapolis Center
06:58PM 36.1806 -85.0703 348° North 489 563 40,100 -180 Descending Indianapolis Center
06:59PM 36.3144 -85.1039 349° North 490 564 40,100  Level Indianapolis Center
07:00PM 36.4497 -85.1383 348° North 494 568 40,100  Level Indianapolis Center
07:01PM 36.5825 -85.1733 348° North 489 563 40,100  Level Indianapolis Center
07:02PM 36.7181 -85.2086 348° North 494 568 40,100  Level Indianapolis Center
07:03PM 36.8531 -85.2436 348° North 496 571 40,100  Level Indianapolis Center
07:04PM 37.0153 -85.2861 348° North 495 570 40,100  Level Indianapolis Center
07:05PM 37.1356 -85.3181 348° North 496 571 40,100  Level Indianapolis Center
07:06PM 37.2922 -85.3586 348° North 489 563 40,100  Level Indianapolis Center
07:07PM 37.4278 -85.3947 348° North 495 570 40,100  Level Indianapolis Center
07:09PM 37.5631 -85.4308 348° North 494 568 40,100  Level Indianapolis Center
07:10PM 37.6961 -85.4694 347° North 489 563 40,100  Level Indianapolis Center
07:11PM 37.8422 -85.5061 349° North 495 570 40,100  Level Indianapolis Center
07:12PM 37.9769 -85.5431 348° North 495 570 40,100  Level Indianapolis Center
07:13PM 38.1094 -85.5814 347° North 490 564 40,100  Level Indianapolis Center
07:14PM 38.2267 -85.6478 336° Northwest 460 529 40,100  Level Indianapolis Center
07:15PM 38.3414 -85.7147 335° Northwest 452 520 40,100  Level Indianapolis Center
07:16PM 38.4572 -85.7858 334° Northwest 460 529 40,100  Level Indianapolis Center
07:17PM 38.5961 -85.8686 335° Northwest 458 527 40,100  Level Indianapolis Center
07:18PM 38.7122 -85.9381 335° Northwest 460 529 40,100  Level Indianapolis Center
07:19PM 38.8286 -86.0067 335° Northwest 461 531 40,100  Level Indianapolis Center
07:20PM 38.9392 -86.0728 335° Northwest 463 533 40,100  Level Indianapolis Center
07:21PM 39.0556 -86.1425 335° Northwest 463 533 40,100  Level Indianapolis Center
07:22PM 39.1961 -86.2278 335° Northwest 464 534 40,100  Level Indianapolis Center
07:23PM 39.3119 -86.2981 335° Northwest 462 532 40,100  Level Indianapolis Center
07:24PM 39.4281 -86.3672 335° Northwest 458 527 40,100  Level Indianapolis Center
07:25PM 39.5436 -86.4389 334° Northwest 458 527 40,100 -60 Level Indianapolis Center
07:26PM 39.6617 -86.5108 335° Northwest 461 531 40,000  Descending Indianapolis Center
07:27PM 39.7775 -86.5819 335° Northwest 454 522 40,100  Climbing Indianapolis Center
07:28PM 39.8942 -86.6542 335° Northwest 460 529 40,100  Level Indianapolis Center
07:29PM 40.0350 -86.7417 335° Northwest 465 535 40,100  Level Indianapolis Center
07:30PM 40.1525 -86.8153 334° Northwest 468 539 40,100  Level Indianapolis Center
07:31PM 40.1997 -86.8442 335° Northwest 468 539 40,100  Level Chicago Center
07:32PM 40.3378 -86.9308 334° Northwest 462 532 40,100 -120 Level Chicago Center
07:33PM 40.4533 -87.0033 334° Northwest 461 531 39,900 -660 Descending Chicago Center
07:34PM 40.5664 -87.0739 335° Northwest 456 525 38,800 -960 Descending Chicago Center
07:35PM 40.6581 -87.1842 318° Northwest 426 490 38,000 -1,140 Descending Chicago Center
07:36PM 40.7428 -87.2908 316° Northwest 425 489 36,500 -1,800 Descending Chicago Center
07:37PM 40.8508 -87.3486 338° Northwest 435 501 34,400 -1,500 Descending Chicago Center
07:38PM 40.9856 -87.3531 359° North 481 554 33,400 -840 Descending Chicago Center
07:39PM 41.1547 -87.3531 360° North 507 583 32,700 -1,080 Descending Chicago Center
07:40PM 41.2911 -87.3528 360° North 498 573 31,200 -780 Descending Chicago Center
07:41PM 41.4278 -87.3522 360° North 496 571 31,100 -300 Descending Chicago Center
07:42PM 41.5636 -87.3525 360° North 495 570 30,600 -2,400 Descending Chicago Center
07:43PM 41.7244 -87.3531 360° North 484 557 26,200 -3,120 Descending Chicago Center
07:44PM 41.8403 -87.3517 North 431 496 24,200 -1,500 Descending Chicago Center
07:45PM 41.9528 -87.3511 360° North 411 473 23,200 -1,140 Descending Chicago Center
07:46PM 42.0689 -87.3508 360° North 418 481 21,900 -1,500 Descending Chicago Center
07:47PM 42.1800 -87.3514 360° North 401 461 20,100 -1,500 Descending Chicago Center
07:48PM 42.3158 -87.3500 360° North 407 468 18,900 -1,140 Descending Chicago Center
07:49PM 42.4253 -87.3503 360° North 397 457 17,800 -1,740 Descending Chicago Center
07:50PM 42.5147 -87.3492 North 368 423 15,300 -3,000 Descending Chicago Center
07:51PM 42.6358 -87.3506 360° North 362 417 11,700 -2,580 Descending Chicago Center
07:52PM 42.7142 -87.3878 341° North 333 383 10,000 -900 Descending Chicago Center
07:54PM 42.7450 -87.4825 294° West 275 316 9,900 -1,200 Descending Chicago Center
07:55PM 42.7706 -87.5581 295° West 228 262 7,600 -3,060 Descending Chicago Center
07:56PM 42.7811 -87.6564 278° West 223 257 3,600 -2,280 Descending Chicago Center
07:57PM 42.7778 -87.7389 267° West 225 259 3,000 -600 Descending Chicago Center
07:59PM 42.7500 -87.8000 236° Southwest  Level FlightAware Approximate
08:06PM 42.7612 -87.8139 236° Southwest  Level Estimated
08:07PM 42.7612 -87.8139 236° Southwest  Level Estimated
08:08PM 42.7612 -87.8139 236° Southwest  Level Estimated
08:09PM 42.7612 -87.8139 236° Southwest  Level Estimated
08:10PM 42.7612 -87.8139 236° Southwest  Level Estimated
08:11PM 42.7612 -87.8139 236° Southwest  Level Estimated
08:12PM 42.7612 -87.8139 236° Southwest  Level Estimated
08:13PM 42.7612 -87.8139 236° Southwest  Level Estimated
08:14PM 42.7612 -87.8139 236° Southwest  Level Estimated
08:15PM 42.7612 -87.8139 236° Southwest  Level Estimated
08:16PM 42.7612 -87.8139 236° Southwest  Level Estimated